Terminal Aerodrome Forecast
Issued by NWS

Home | Current Version | Previous Version | Graphics & Text | Print | Product List | Glossary On
Versions: 1 2 3 4 5 6 7 8 9 10 11 12 13 14 15 16 17 18 19
000
FTUS43 KDVN 160500 AAA
TAFCID
TAF AMD
KCID 160508Z 1605/1624 04007KT 3SM -RADZ BR OVC005
     FM160600 34012G20KT 2SM -RADZ BR OVC006
     FM161000 32020G28KT 3SM -RASN BR OVC008
     FM161300 31022G32KT 5SM BR OVC012
     FM161700 31021G30KT P6SM OVC020
     FM162200 31018G25KT P6SM BKN035=

USA.gov is the U.S. government's official web portal to all federal, state and local government web resources and services.